Flight Track Log - Related Links

Times and Time Zones

All times are in EDT time to prevent confusion due to time zone crossing. See the UAL33 flight status page for this flight to view local times or setup timezone preferences in your user account.

Time Position Orientation Groundspeed Altitude Reporting Facility
EDT Latitude Longitude Course Direction KTS MPH feet Rate Location/Type
Sun 05:35:29 PM 29.9598 -95.3397 217° Southwest 163 188 800  Level FlightAware ADS-B
Sun 05:35:35 PM 29.9567 -95.3358 133° Southeast 164 189 1,100 3,000 Climbing FlightAware ADS-B
Sun 05:35:39 PM 29.9550 -95.3324 120° Southeast 164 189 1,300 2,571 Climbing FlightAware ADS-B
Sun 05:35:42 PM 29.9544 -95.3298 105° East 165 190 1,400 2,571 Climbing FlightAware ADS-B
Sun 05:35:46 PM 29.9538 -95.3263 101° East 168 193 1,600 2,400 Climbing FlightAware ADS-B
Sun 05:35:52 PM 29.9535 -95.3212 94° East 170 196 1,800 2,500 Climbing FlightAware ADS-B
Sun 05:36:10 PM 29.9535 -95.3051 90° East 177 204 2,600 2,400 Climbing FlightAware ADS-B
Sun 05:36:17 PM 29.9538 -95.2975 87° East 191 220 2,800 1,636 Climbing FlightAware ADS-B
Sun 05:36:21 PM 29.9543 -95.2932 82° East 201 231 2,900 1,333 Climbing FlightAware ADS-B
Sun 05:36:26 PM 29.9558 -95.2878 72° East 211 243 3,000 1,333 Climbing FlightAware ADS-B
Sun 05:36:30 PM 29.9575 -95.2838 64° Northeast 220 253 3,100 857 Climbing FlightAware ADS-B
Sun 05:36:33 PM 29.9594 -95.2804 57° Northeast 228 262 3,100 857 Level FlightAware ADS-B
Sun 05:36:37 PM 29.9618 -95.2774 47° Northeast 235 270 3,200 1,800 Climbing FlightAware ADS-B
Sun 05:36:43 PM 29.9669 -95.2724 40° Northeast 247 284 3,400 1,714 Climbing FlightAware ADS-B
Sun 05:36:51 PM 29.9759 -95.2674 21° North 264 304 3,600 1,200 Climbing FlightAware ADS-B
Sun 05:36:58 PM 29.9840 -95.2650 12° North 274 315 3,700 857 Climbing FlightAware ADS-B
Sun 05:37:05 PM 29.9937 -95.2637 North 277 319 3,800 1,222 Climbing FlightAware ADS-B
Sun 05:37:52 PM 30.0550 -95.2604 358° North 284 327 4,800 1,759 Climbing FlightAware ADS-B
Sun 05:38:03 PM 30.0693 -95.2644 341° North 284 327 5,500 3,931 Climbing FlightAware ADS-B
Sun 05:38:21 PM 30.0889 -95.2779 325° Northwest 284 327 6,700 3,800 Climbing FlightAware ADS-B
Sun 05:38:33 PM 30.1024 -95.2892 324° Northwest 288 331 7,400 2,655 Climbing FlightAware ADS-B
Sun 05:40:14 PM 30.2204 -95.3882 324° Northwest 359 413 11,700 2,636 Climbing FlightAware ADS-B
Sun 05:40:45 PM 30.2625 -95.4232 324° Northwest 366 421 13,200 2,516 Climbing FlightAware ADS-B
Sun 05:41:16 PM 30.3052 -95.4588 324° Northwest 372 428 14,300 2,571 Climbing FlightAware ADS-B
Sun 05:41:48 PM 30.3508 -95.4970 324° Northwest 373 429 15,900 1,677 Climbing FlightAware ADS-B
Sun 05:42:49 PM 30.4373 -95.5695 324° Northwest 389 448 16,900 968 Climbing FlightAware ADS-B
Sun 05:43:52 PM 30.5300 -95.6458 328° Northwest 390 449 17,900 1,317 Climbing FlightAware ADS-B
Sun 05:44:11 PM 30.5603 -95.6652 331° Northwest 398 458 18,700 2,816 Climbing FlightAware ADS-B
Sun 05:44:41 PM 30.6112 -95.6923 335° Northwest 404 465 20,200 2,754 Climbing FlightAware ADS-B
Sun 05:45:12 PM 30.6633 -95.7203 335° Northwest 411 473 21,500 2,459 Climbing FlightAware ADS-B
Sun 05:45:42 PM 30.7167 -95.7489 335° Northwest 422 486 22,700 2,200 Climbing FlightAware ADS-B
Sun 05:46:42 PM 30.8269 -95.8083 335° Northwest 443 510 24,800 2,361 Climbing FlightAware ADS-B
Sun 05:47:44 PM 30.9418 -95.8696 335° Northwest 444 511 27,500 2,314 Climbing FlightAware ADS-B
Sun 05:49:02 PM 31.0873 -95.9479 335° Northwest 457 526 30,200 2,000 Climbing FlightAware ADS-B
Sun 05:49:38 PM 31.1616 -95.9765 345° North 466 536 31,300 1,581 Climbing FlightAware ADS-B
Sun 05:51:11 PM 31.3635 -96.0239 349° North 485 558 33,600 1,488 Climbing FlightAware ADS-B
Sun 05:51:43 PM 31.4330 -96.0400 349° North 489 563 34,400 1,571 Climbing FlightAware ADS-B
Sun 05:51:53 PM 31.4572 -96.0457 349° North 490 564 34,700 1,465 Climbing FlightAware ADS-B
Sun 05:53:09 PM 31.6250 -96.0850 349° North 493 567 36,500 1,584 Climbing FlightAware ADS-B
Sun 05:53:58 PM 31.7364 -96.1116 349° North 486 559 38,000 1,650 Climbing FlightAware ADS-B
Sun 05:55:09 PM 31.8860 -96.1470 349° North 474 545 39,800 1,451 Climbing FlightAware ADS-B
Sun 05:55:29 PM 31.9327 -96.1577 349° North 474 545 40,200 1,245 Climbing FlightAware ADS-B
Sun 05:56:02 PM 32.0025 -96.1743 349° North 470 541 40,900 318 Climbing FlightAware ADS-B
Sun 05:58:00 PM 32.2532 -96.2189 356° North 467 537 41,000 40 Climbing FlightAware ADS-B
Sun 05:58:31 PM 32.3206 -96.2196 359° North 470 541 41,000  Level FlightAware ADS-B
Sun 05:59:05 PM 32.3947 -96.2205 359° North 470 541 41,000  Level FlightAware ADS-B
Sun 05:59:43 PM 32.4795 -96.2216 359° North 472 543 41,000  Level FlightAware ADS-B
Sun 06:00:38 PM 32.5990 -96.2229 359° North 470 541 41,000  Level FlightAware ADS-B
Sun 06:01:22 PM 32.6930 -96.2240 359° North 469 540 41,000  Level FlightAware ADS-B
Sun 06:02:42 PM 32.8660 -96.2260 359° North 470 541 41,000  Level FlightAware ADS-B
Sun 06:03:26 PM 32.9630 -96.2270 360° North 470 541 41,000  Level FlightAware ADS-B
Sun 06:04:06 PM 33.0490 -96.2280 359° North 469 540 41,000  Level FlightAware ADS-B
Sun 06:04:50 PM 33.1450 -96.2290 360° North 469 540 41,000  Level FlightAware ADS-B
Sun 06:05:14 PM 33.1950 -96.2300 359° North 469 540 41,000  Level FlightAware ADS-B
Sun 06:05:58 PM 33.2920 -96.2310 360° North 473 544 41,000  Level FlightAware ADS-B
Sun 06:06:42 PM 33.3900 -96.2320 360° North 477 549 41,000  Level FlightAware ADS-B
Sun 06:07:22 PM 33.4780 -96.2330 359° North 479 551 41,000  Level FlightAware ADS-B
Sun 06:07:52 PM 33.5440 -96.2280 North 483 556 41,000  Level FlightAware ADS-B
Sun 06:08:32 PM 33.6300 -96.1970 17° North 496 571 41,000  Level FlightAware ADS-B
Sun 06:09:16 PM 33.7190 -96.1320 31° Northeast 501 577 41,000  Level FlightAware ADS-B
Sun 06:09:57 PM 33.7990 -96.0710 32° Northeast 501 577 41,000  Level FlightAware ADS-B
Sun 06:10:40 PM 33.8810 -96.0080 33° Northeast 501 577 41,000  Level FlightAware ADS-B
Sun 06:11:20 PM 33.9610 -95.9480 32° Northeast 499 574 41,000  Level FlightAware ADS-B
Sun 06:12:04 PM 34.0480 -95.8810 33° Northeast 498 573 41,000  Level FlightAware ADS-B
Sun 06:12:44 PM 34.1240 -95.8220 33° Northeast 497 572 41,000  Level FlightAware ADS-B
Sun 06:13:28 PM 34.2090 -95.7570 32° Northeast 494 568 41,000  Level FlightAware ADS-B
Sun 06:14:08 PM 34.2860 -95.6980 32° Northeast 495 570 41,000  Level FlightAware ADS-B
Sun 06:14:54 PM 34.3750 -95.6290 33° Northeast 496 571 41,000  Level FlightAware ADS-B
Sun 06:15:32 PM 34.4480 -95.5730 32° Northeast 497 572 41,000  Level FlightAware ADS-B
Sun 06:16:17 PM 34.5260 -95.5130 32° Northeast 495 570 41,000  Level FlightAware ADS-B
Sun 06:16:54 PM 34.6070 -95.4490 33° Northeast 494 568 41,000  Level FlightAware ADS-B
Sun 06:17:42 PM 34.6990 -95.3780 32° Northeast 495 570 41,000  Level FlightAware ADS-B
Sun 06:18:22 PM 34.7780 -95.3200 31° Northeast 494 568 41,000  Level FlightAware ADS-B
Sun 06:19:06 PM 34.8650 -95.2560 31° Northeast 494 568 41,000  Level FlightAware ADS-B
Sun 06:19:41 PM 34.9310 -95.2070 31° Northeast 495 570 41,000  Level FlightAware ADS-B
Sun 06:20:42 PM 35.0490 -95.1190 31° Northeast 495 570 41,000  Level FlightAware ADS-B
Sun 06:21:37 PM 35.1550 -95.0400 31° Northeast 493 567 41,000  Level FlightAware ADS-B
Sun 06:22:17 PM 35.2340 -94.9800 32° Northeast 492 566 41,000  Level FlightAware ADS-B
Sun 06:22:57 PM 35.3110 -94.9220 32° Northeast 491 565 41,000  Level FlightAware ADS-B
Sun 06:23:45 PM 35.4070 -94.8500 31° Northeast 489 563 41,000  Level FlightAware ADS-B
Sun 06:24:25 PM 35.4840 -94.7920 32° Northeast 489 563 41,000  Level FlightAware ADS-B
Sun 06:25:07 PM 35.5660 -94.7300 32° Northeast 488 562 41,000  Level FlightAware ADS-B
Sun 06:25:51 PM 35.6490 -94.6670 32° Northeast 488 562 41,000  Level FlightAware ADS-B
Sun 06:26:31 PM 35.7270 -94.6070 32° Northeast 487 560 41,000  Level FlightAware ADS-B
Sun 06:27:15 PM 35.8070 -94.5460 32° Northeast 488 562 41,000  Level FlightAware ADS-B
Sun 06:27:55 PM 35.8860 -94.4850 32° Northeast 489 563 41,000  Level FlightAware ADS-B
Sun 06:28:39 PM 35.9730 -94.4190 32° Northeast 490 564 41,000  Level FlightAware ADS-B
Sun 06:29:19 PM 36.0480 -94.3610 32° Northeast 491 565 41,000  Level FlightAware ADS-B
Sun 06:30:03 PM 36.1340 -94.2950 32° Northeast 491 565 41,000  Level FlightAware ADS-B
Sun 06:30:43 PM 36.2110 -94.2360 32° Northeast 492 566 41,000  Level FlightAware ADS-B
Sun 06:31:26 PM 36.2930 -94.1720 32° Northeast 491 565 41,000  Level FlightAware ADS-B
Sun 06:32:10 PM 36.3780 -94.1060 32° Northeast 493 567 41,000  Level FlightAware ADS-B
Sun 06:32:51 PM 36.4560 -94.0450 32° Northeast 490 564 41,000  Level FlightAware ADS-B
Sun 06:33:30 PM 36.5320 -93.9860 32° Northeast 493 567 41,000  Level FlightAware ADS-B
Sun 06:34:15 PM 36.6190 -93.9180 32° Northeast 494 568 41,000  Level FlightAware ADS-B
Sun 06:34:55 PM 36.6970 -93.8570 32° Northeast 494 568 41,000  Level FlightAware ADS-B
Sun 06:35:39 PM 36.7820 -93.7900 32° Northeast 497 572 41,000  Level FlightAware ADS-B
Sun 06:36:19 PM 36.8600 -93.7290 32° Northeast 496 571 41,000  Level FlightAware ADS-B
Sun 06:37:03 PM 36.9440 -93.6620 33° Northeast 484 557 41,000  Level FlightAware ADS-B
Sun 06:37:43 PM 37.0190 -93.6030 32° Northeast 476 548 41,000  Level FlightAware ADS-B
Sun 06:38:26 PM 37.0980 -93.5400 32° Northeast 472 543 41,000  Level FlightAware ADS-B
Sun 06:39:09 PM 37.1780 -93.4760 33° Northeast 472 543 41,000  Level FlightAware ADS-B
Sun 06:39:49 PM 37.2510 -93.4180 32° Northeast 471 542 41,000  Level FlightAware ADS-B
Sun 06:40:33 PM 37.3320 -93.3530 33° Northeast 469 540 41,000  Level FlightAware ADS-B
Sun 06:41:15 PM 37.4070 -93.2870 35° Northeast 468 539 41,000  Level FlightAware ADS-B
Sun 06:41:53 PM 37.4730 -93.2260 36° Northeast 468 539 41,000  Level FlightAware ADS-B
Sun 06:42:35 PM 37.5460 -93.1590 36° Northeast 469 540 41,000  Level FlightAware ADS-B
Sun 06:43:19 PM 37.6240 -93.0870 36° Northeast 469 540 41,000  Level FlightAware ADS-B
Sun 06:44:01 PM 37.7010 -93.0320 29° Northeast 468 539 41,000  Level FlightAware ADS-B
Sun 06:44:45 PM 37.7970 -93.0100 10° North 469 540 41,000  Level FlightAware ADS-B
Sun 06:45:25 PM 37.8810 -92.9930 North 469 540 41,000  Level FlightAware ADS-B
Sun 06:46:09 PM 37.9750 -92.9750 North 471 542 41,000  Level FlightAware ADS-B
Sun 06:46:49 PM 38.0600 -92.9590 North 468 539 41,000  Level FlightAware ADS-B
Sun 06:47:33 PM 38.1560 -92.9400 North 468 539 41,000  Level FlightAware ADS-B
Sun 06:48:09 PM 38.2260 -92.9270 North 466 536 41,000  Level FlightAware ADS-B
Sun 06:48:56 PM 38.3260 -92.8960 14° North 462 532 41,000  Level FlightAware ADS-B
Sun 06:49:36 PM 38.3950 -92.8260 38° Northeast 461 531 41,000  Level FlightAware ADS-B
Sun 06:50:19 PM 38.4400 -92.7230 61° Northeast 458 527 41,000  Level FlightAware ADS-B
Sun 06:51:03 PM 38.4810 -92.6160 64° Northeast 457 526 41,000  Level FlightAware ADS-B
Sun 06:51:59 PM 38.5320 -92.4800 64° Northeast 456 525 41,000  Level FlightAware ADS-B
Sun 06:52:55 PM 38.5830 -92.3460 64° Northeast 456 525 41,000  Level FlightAware ADS-B
Sun 06:53:35 PM 38.6200 -92.2470 64° Northeast 459 528 41,000  Level FlightAware ADS-B
Sun 06:54:13 PM 38.6540 -92.1540 65° Northeast 461 531 41,000  Level FlightAware ADS-B
Sun 06:55:15 PM 38.7080 -92.0110 64° Northeast 463 533 41,000  Level FlightAware ADS-B
Sun 06:55:55 PM 38.7470 -91.9050 65° Northeast 466 536 41,000  Level FlightAware ADS-B
Sun 06:56:36 PM 38.7820 -91.8110 64° Northeast 465 535 41,000  Level FlightAware ADS-B
Sun 06:57:21 PM 38.8230 -91.6980 65° Northeast 467 537 41,000  Level FlightAware ADS-B
Sun 06:57:47 PM 38.8620 -91.6350 52° Northeast 461 531 41,000  Level FlightAware ADS-B
Sun 06:58:03 PM 38.8920 -91.6110 32° Northeast 457 526 41,000  Level FlightAware ADS-B
Sun 06:58:43 PM 38.9630 -91.5620 28° Northeast 458 527 41,000  Level FlightAware ADS-B
Sun 06:59:21 PM 39.0300 -91.5040 34° Northeast 457 526 41,000  Level FlightAware ADS-B
Sun 07:00:07 PM 39.1130 -91.4320 34° Northeast 460 529 41,000  Level FlightAware ADS-B
Sun 07:00:49 PM 39.1860 -91.3670 35° Northeast 464 534 41,000  Level FlightAware ADS-B
Sun 07:01:33 PM 39.2650 -91.2970 34° Northeast 464 534 41,000  Level FlightAware ADS-B
Sun 07:02:13 PM 39.3360 -91.2340 34° Northeast 462 532 41,000  Level FlightAware ADS-B
Sun 07:02:56 PM 39.4100 -91.1680 35° Northeast 461 531 41,000  Level FlightAware ADS-B
Sun 07:03:33 PM 39.4770 -91.1100 34° Northeast 465 535 41,000 -217 Level FlightAware ADS-B
Sun 07:04:19 PM 39.5600 -91.0370 34° Northeast 472 543 40,700 -913 Descending FlightAware ADS-B
Sun 07:05:05 PM 39.6440 -90.9630 34° Northeast 481 554 39,600 -1,395 Descending FlightAware ADS-B
Sun 07:05:45 PM 39.7180 -90.8980 34° Northeast 482 555 38,700 -701 Descending FlightAware ADS-B
Sun 07:06:22 PM 39.7760 -90.8470 34° Northeast 482 555 38,700 -1,357 Level FlightAware ADS-B
Sun 07:07:09 PM 39.8690 -90.7640 34° Northeast 474 545 36,800 -2,022 Descending FlightAware ADS-B
Sun 07:07:51 PM 39.9470 -90.6940 35° Northeast 480 552 35,700 -1,537 Descending FlightAware ADS-B
Sun 07:08:31 PM 40.0210 -90.6290 34° Northeast 482 555 34,700 -1,537 Descending FlightAware ADS-B
Sun 07:09:13 PM 40.0950 -90.5610 35° Northeast 480 552 33,600 -1,200 Descending FlightAware ADS-B
Sun 07:09:56 PM 40.1750 -90.4900 34° Northeast 477 549 33,000 -419 Descending FlightAware ADS-B
Sun 07:10:39 PM 40.2500 -90.4220 35° Northeast 470 541 33,000  Level FlightAware ADS-B
Sun 07:11:42 PM 40.3630 -90.3200 35° Northeast 480 552 33,000  Level FlightAware ADS-B
Sun 07:12:27 PM 40.4480 -90.2440 34° Northeast 477 549 33,000  Level FlightAware ADS-B
Sun 07:13:09 PM 40.5240 -90.1740 35° Northeast 472 543 33,000 -732 Level FlightAware ADS-B
Sun 07:13:49 PM 40.5950 -90.1090 35° Northeast 461 531 32,000 -1,571 Descending FlightAware ADS-B
Sun 07:14:33 PM 40.6710 -90.0400 35° Northeast 452 520 30,800 -1,786 Descending FlightAware ADS-B
Sun 07:15:13 PM 40.7400 -89.9760 35° Northeast 445 512 29,500 -1,875 Descending FlightAware ADS-B
Sun 07:15:53 PM 40.8070 -89.9150 35° Northeast 437 503 28,300 -1,814 Descending FlightAware ADS-B
Sun 07:16:39 PM 40.8820 -89.8460 35° Northeast 429 494 26,900 -1,535 Descending FlightAware ADS-B
Sun 07:17:19 PM 40.9460 -89.7860 35° Northeast 424 488 26,100 -1,071 Descending FlightAware ADS-B
Sun 07:18:03 PM 41.0170 -89.7210 35° Northeast 418 481 25,400 -907 Descending FlightAware ADS-B
Sun 07:18:45 PM 41.0820 -89.6600 35° Northeast 420 483 24,800 -1,317 Descending FlightAware ADS-B
Sun 07:19:25 PM 41.1450 -89.5980 37° Northeast 420 483 23,600 -1,902 Descending FlightAware ADS-B
Sun 07:20:07 PM 41.1920 -89.5100 55° Northeast 424 488 22,200 -1,953 Descending FlightAware ADS-B
Sun 07:20:51 PM 41.2330 -89.4070 62° Northeast 423 487 20,800 -1,929 Descending FlightAware ADS-B
Sun 07:21:31 PM 41.2700 -89.3150 62° Northeast 424 488 19,500 -1,875 Descending FlightAware ADS-B
Sun 07:22:11 PM 41.3050 -89.2280 62° Northeast 404 465 18,300 -2,023 Descending FlightAware ADS-B
Sun 07:22:57 PM 41.3470 -89.1240 62° Northeast 411 473 16,600 -2,023 Descending FlightAware ADS-B
Sun 07:23:37 PM 41.3820 -89.0360 62° Northeast 398 458 15,400 -1,807 Descending FlightAware ADS-B
Sun 07:24:20 PM 41.4170 -88.9470 62° Northeast 375 432 14,100 -1,735 Descending FlightAware ADS-B
Sun 07:25:00 PM 41.4500 -88.8660 61° Northeast 370 426 13,000 -1,663 Descending FlightAware ADS-B
Sun 07:25:43 PM 41.4840 -88.7810 62° Northeast 368 423 11,800 -1,553 Descending FlightAware ADS-B
Sun 07:26:25 PM 41.5170 -88.6970 62° Northeast 355 409 10,800 -714 Descending FlightAware ADS-B
Sun 07:27:07 PM 41.5460 -88.6210 63° Northeast 305 351 10,800 -70 Level FlightAware ADS-B
Sun 07:27:51 PM 41.5760 -88.5470 62° Northeast 316 364 10,700 -419 Descending FlightAware ADS-B
Sun 07:28:33 PM 41.6060 -88.4750 61° Northeast 310 357 10,200 -882 Descending FlightAware ADS-B
Sun 07:28:59 PM 41.6270 -88.4360 54° Northeast 303 349 9,700 -878 Descending FlightAware ADS-B
Sun 07:29:14 PM 41.6410 -88.4130 51° Northeast 304 350 9,600 -450 Descending FlightAware ADS-B
Sun 07:29:39 PM 41.6620 -88.3770 52° Northeast 312 359 9,400 -737 Descending FlightAware ADS-B
Sun 07:30:11 PM 41.6950 -88.3360 43° Northeast 291 335 8,900 -1,180 Descending FlightAware ADS-B
Sun 07:30:40 PM 41.7300 -88.3160 23° Northeast 293 337 8,200 -1,474 Descending FlightAware ADS-B
Sun 07:31:08 PM 41.7670 -88.2990 19° North 287 330 7,500 -1,309 Descending FlightAware ADS-B
Sun 07:31:35 PM 41.8010 -88.2830 19° North 283 326 7,000 -1,154 Descending FlightAware ADS-B
Sun 07:32:00 PM 41.8310 -88.2700 18° North 282 325 6,500 -1,245 Descending FlightAware ADS-B
Sun 07:32:28 PM 41.8660 -88.2560 17° North 280 322 5,900 -1,179 Descending FlightAware ADS-B
Sun 07:32:56 PM 41.9000 -88.2430 16° North 266 306 5,400 -1,286 Descending FlightAware ADS-B
Sun 07:33:24 PM 41.9320 -88.2280 19° North 243 280 4,700 -1,535 Descending FlightAware ADS-B
Sun 07:33:39 PM 41.9430 -88.2130 45° Northeast 221 254 4,300 -1,448 Descending FlightAware ADS-B
Sun 07:33:53 PM 41.9460 -88.1960 77° East 211 243 4,000 -1,286 Descending FlightAware ADS-B
Sun 07:34:21 PM 41.9520 -88.1610 77° East 218 251 3,400 -1,091 Descending FlightAware ADS-B
Sun 07:34:48 PM 41.9590 -88.1240 76° East 213 245 3,000 -655 Descending FlightAware ADS-B
Sun 07:35:16 PM 41.9680 -88.0900 70° East 197 227 2,800 -692 Descending FlightAware ADS-B
Sun 07:35:40 PM 41.9680 -88.0620 90° East 191 220 2,400 -964 Descending FlightAware ADS-B
Sun 07:36:12 PM 41.9690 -88.0310 88° East 167 192 1,900 -871 Descending FlightAware ADS-B
Sun 07:36:42 PM 41.9690 -88.0000 90° East 139 160 1,500 -778 Descending FlightAware ADS-B
Sun 07:37:06 PM 41.9690 -87.9790 90° East 137 158 1,200 -750 Descending FlightAware ADS-B
Sun 07:37:38 PM 41.9690 -87.9530 90° East 135 155 800 -800 Descending FlightAware ADS-B
Sun 07:38:06 PM 41.9690 -87.9290 90° East 134 154 400 -414 Descending FlightAware ADS-B
Sun 07:38:36 PM 41.9690 -87.9080 90° East 134 154 400  Level FlightAware ADS-B

Login

Don't have an account? Register now (free) for customized features, flight alerts, and more!